sensor_id;sensor_type;location;lat;lon;timestamp;P1;durP1;ratioP1;P2;durP2;ratioP2
76228;SDS011;65021;53.174;18.160;2022-12-29T00:01:58;10.80;;;4.00;;
76228;SDS011;65021;53.174;18.160;2022-12-29T00:04:24;9.10;;;4.50;;
76228;SDS011;65021;53.174;18.160;2022-12-29T00:06:51;11.30;;;5.20;;
76228;SDS011;65021;53.174;18.160;2022-12-29T00:09:19;9.90;;;5.10;;
76228;SDS011;65021;53.174;18.160;2022-12-29T00:11:46;13.60;;;6.00;;
76228;SDS011;65021;53.174;18.160;2022-12-29T00:14:12;12.50;;;6.30;;
76228;SDS011;65021;53.174;18.160;2022-12-29T00:16:58;11.70;;;5.70;;
76228;SDS011;65021;53.174;18.160;2022-12-29T00:19:24;13.60;;;5.50;;
76228;SDS011;65021;53.174;18.160;2022-12-29T00:22:12;13.60;;;7.00;;
76228;SDS011;65021;53.174;18.160;2022-12-29T00:24:58;8.90;;;4.80;;
76228;SDS011;65021;53.174;18.160;2022-12-29T00:27:43;10.00;;;5.70;;
76228;SDS011;65021;53.174;18.160;2022-12-29T00:30:29;16.00;;;7.40;;
76228;SDS011;65021;53.174;18.160;2022-12-29T00:33:15;13.40;;;7.10;;
76228;SDS011;65021;53.174;18.160;2022-12-29T00:36:06;12.10;;;6.20;;
76228;SDS011;65021;53.174;18.160;2022-12-29T00:38:38;12.10;;;7.00;;
76228;SDS011;65021;53.174;18.160;2022-12-29T00:41:27;12.30;;;5.70;;
76228;SDS011;65021;53.174;18.160;2022-12-29T00:44:12;12.70;;;5.20;;
76228;SDS011;65021;53.174;18.160;2022-12-29T00:46:40;11.20;;;4.80;;
76228;SDS011;65021;53.174;18.160;2022-12-29T00:49:10;10.20;;;4.80;;
76228;SDS011;65021;53.174;18.160;2022-12-29T00:52:06;10.30;;;5.10;;
76228;SDS011;65021;53.174;18.160;2022-12-29T00:54:36;11.60;;;5.50;;
76228;SDS011;65021;53.174;18.160;2022-12-29T00:57:04;10.30;;;4.70;;
76228;SDS011;65021;53.174;18.160;2022-12-29T00:59:36;8.30;;;4.60;;
76228;SDS011;65021;53.174;18.160;2022-12-29T01:02:04;8.40;;;4.30;;
76228;SDS011;65021;53.174;18.160;2022-12-29T01:04:31;9.50;;;4.80;;
76228;SDS011;65021;53.174;18.160;2022-12-29T01:06:58;8.40;;;3.90;;
76228;SDS011;65021;53.174;18.160;2022-12-29T01:09:24;7.80;;;3.90;;
76228;SDS011;65021;53.174;18.160;2022-12-29T01:12:10;12.40;;;4.80;;
76228;SDS011;65021;53.174;18.160;2022-12-29T01:14:37;9.00;;;4.50;;
76228;SDS011;65021;53.174;18.160;2022-12-29T01:17:04;8.10;;;3.70;;
76228;SDS011;65021;53.174;18.160;2022-12-29T01:19:31;10.10;;;4.90;;
76228;SDS011;65021;53.174;18.160;2022-12-29T01:21:57;10.90;;;5.40;;
76228;SDS011;65021;53.174;18.160;2022-12-29T01:24:24;7.50;;;3.70;;
76228;SDS011;65021;53.174;18.160;2022-12-29T01:26:52;9.90;;;4.80;;
76228;SDS011;65021;53.174;18.160;2022-12-29T01:29:20;9.60;;;4.70;;
76228;SDS011;65021;53.174;18.160;2022-12-29T01:31:47;10.90;;;4.70;;
76228;SDS011;65021;53.174;18.160;2022-12-29T01:34:15;11.10;;;4.70;;
76228;SDS011;65021;53.174;18.160;2022-12-29T01:36:42;10.00;;;4.50;;
76228;SDS011;65021;53.174;18.160;2022-12-29T01:39:09;9.80;;;3.30;;
76228;SDS011;65021;53.174;18.160;2022-12-29T01:41:35;10.10;;;4.30;;
76228;SDS011;65021;53.174;18.160;2022-12-29T01:44:02;11.20;;;4.70;;
76228;SDS011;65021;53.174;18.160;2022-12-29T01:46:39;13.40;;;5.80;;
76228;SDS011;65021;53.174;18.160;2022-12-29T01:51:38;12.40;;;5.50;;
76228;SDS011;65021;53.174;18.160;2022-12-29T01:54:11;9.70;;;4.90;;
76228;SDS011;65021;53.174;18.160;2022-12-29T01:56:42;10.50;;;5.10;;
76228;SDS011;65021;53.174;18.160;2022-12-29T01:59:15;9.30;;;4.40;;
76228;SDS011;65021;53.174;18.160;2022-12-29T02:01:46;12.60;;;5.30;;
76228;SDS011;65021;53.174;18.160;2022-12-29T02:04:13;12.30;;;5.10;;
76228;SDS011;65021;53.174;18.160;2022-12-29T02:06:46;12.10;;;5.70;;
76228;SDS011;65021;53.174;18.160;2022-12-29T02:09:16;10.10;;;5.50;;
76228;SDS011;65021;53.174;18.160;2022-12-29T02:11:42;12.50;;;5.90;;
76228;SDS011;65021;53.174;18.160;2022-12-29T02:14:12;15.10;;;6.70;;
76228;SDS011;65021;53.174;18.160;2022-12-29T02:36:37;10.40;;;5.40;;
76228;SDS011;65021;53.174;18.160;2022-12-29T02:44:40;8.50;;;4.10;;
76228;SDS011;65021;53.174;18.160;2022-12-29T02:47:24;7.00;;;3.70;;
76228;SDS011;65021;53.174;18.160;2022-12-29T02:50:06;8.70;;;3.80;;
76228;SDS011;65021;53.174;18.160;2022-12-29T02:52:51;8.60;;;4.70;;
76228;SDS011;65021;53.174;18.160;2022-12-29T02:55:24;8.50;;;3.90;;
76228;SDS011;65021;53.174;18.160;2022-12-29T03:04:09;9.70;;;4.10;;
76228;SDS011;65021;53.174;18.160;2022-12-29T03:09:27;8.90;;;3.80;;
76228;SDS011;65021;53.174;18.160;2022-12-29T03:12:11;9.30;;;4.50;;
76228;SDS011;65021;53.174;18.160;2022-12-29T03:14:57;7.20;;;3.60;;
76228;SDS011;65021;53.174;18.160;2022-12-29T03:17:51;8.00;;;4.10;;
76228;SDS011;65021;53.174;18.160;2022-12-29T03:20:24;9.10;;;4.60;;
76228;SDS011;65021;53.174;18.160;2022-12-29T03:22:58;8.90;;;4.30;;
76228;SDS011;65021;53.174;18.160;2022-12-29T03:25:32;6.50;;;2.80;;
76228;SDS011;65021;53.174;18.160;2022-12-29T03:28:03;12.00;;;4.50;;
76228;SDS011;65021;53.174;18.160;2022-12-29T03:30:35;7.70;;;4.30;;
76228;SDS011;65021;53.174;18.160;2022-12-29T03:33:07;9.40;;;4.40;;
76228;SDS011;65021;53.174;18.160;2022-12-29T03:35:38;5.20;;;2.60;;
76228;SDS011;65021;53.174;18.160;2022-12-29T03:40:52;11.10;;;5.30;;
76228;SDS011;65021;53.174;18.160;2022-12-29T03:43:21;8.10;;;4.00;;
76228;SDS011;65021;53.174;18.160;2022-12-29T03:45:49;9.80;;;4.40;;
76228;SDS011;65021;53.174;18.160;2022-12-29T03:48:16;12.10;;;4.30;;
76228;SDS011;65021;53.174;18.160;2022-12-29T03:50:42;6.20;;;2.80;;
76228;SDS011;65021;53.174;18.160;2022-12-29T03:53:09;9.40;;;4.20;;
76228;SDS011;65021;53.174;18.160;2022-12-29T03:55:35;8.40;;;4.00;;
76228;SDS011;65021;53.174;18.160;2022-12-29T03:58:02;7.60;;;3.20;;
76228;SDS011;65021;53.174;18.160;2022-12-29T04:00:28;7.30;;;4.30;;
76228;SDS011;65021;53.174;18.160;2022-12-29T04:02:55;9.70;;;4.80;;
76228;SDS011;65021;53.174;18.160;2022-12-29T04:05:22;11.30;;;5.50;;
76228;SDS011;65021;53.174;18.160;2022-12-29T04:07:48;9.50;;;5.50;;
76228;SDS011;65021;53.174;18.160;2022-12-29T04:10:15;11.10;;;4.80;;
76228;SDS011;65021;53.174;18.160;2022-12-29T04:12:41;7.00;;;3.10;;
76228;SDS011;65021;53.174;18.160;2022-12-29T04:15:08;12.70;;;5.70;;
76228;SDS011;65021;53.174;18.160;2022-12-29T04:17:35;11.20;;;6.00;;
76228;SDS011;65021;53.174;18.160;2022-12-29T04:20:02;11.00;;;6.30;;
76228;SDS011;65021;53.174;18.160;2022-12-29T04:22:49;8.80;;;4.60;;
76228;SDS011;65021;53.174;18.160;2022-12-29T04:25:16;10.20;;;6.00;;
76228;SDS011;65021;53.174;18.160;2022-12-29T04:27:42;10.40;;;5.70;;
76228;SDS011;65021;53.174;18.160;2022-12-29T04:30:09;11.10;;;6.30;;
76228;SDS011;65021;53.174;18.160;2022-12-29T04:32:36;10.70;;;5.30;;
76228;SDS011;65021;53.174;18.160;2022-12-29T04:35:03;8.70;;;4.20;;
76228;SDS011;65021;53.174;18.160;2022-12-29T04:37:30;11.00;;;5.60;;
76228;SDS011;65021;53.174;18.160;2022-12-29T04:39:56;9.20;;;4.60;;
76228;SDS011;65021;53.174;18.160;2022-12-29T04:42:23;13.60;;;7.00;;
76228;SDS011;65021;53.174;18.160;2022-12-29T04:44:49;13.00;;;7.30;;
76228;SDS011;65021;53.174;18.160;2022-12-29T04:47:16;11.40;;;5.70;;
76228;SDS011;65021;53.174;18.160;2022-12-29T04:49:42;10.10;;;6.20;;
76228;SDS011;65021;53.174;18.160;2022-12-29T04:52:09;12.60;;;6.60;;
76228;SDS011;65021;53.174;18.160;2022-12-29T04:54:35;8.80;;;5.10;;
76228;SDS011;65021;53.174;18.160;2022-12-29T04:57:02;9.90;;;4.90;;
76228;SDS011;65021;53.174;18.160;2022-12-29T04:59:29;9.60;;;5.30;;
76228;SDS011;65021;53.174;18.160;2022-12-29T05:01:55;9.90;;;4.90;;
76228;SDS011;65021;53.174;18.160;2022-12-29T05:04:22;9.40;;;5.60;;
76228;SDS011;65021;53.174;18.160;2022-12-29T05:06:49;8.40;;;4.60;;
76228;SDS011;65021;53.174;18.160;2022-12-29T05:09:15;6.80;;;4.00;;
76228;SDS011;65021;53.174;18.160;2022-12-29T05:11:42;10.00;;;5.30;;
76228;SDS011;65021;53.174;18.160;2022-12-29T05:14:09;8.40;;;5.40;;
76228;SDS011;65021;53.174;18.160;2022-12-29T05:16:35;14.30;;;6.30;;
76228;SDS011;65021;53.174;18.160;2022-12-29T05:19:02;10.20;;;6.20;;
76228;SDS011;65021;53.174;18.160;2022-12-29T05:21:28;9.60;;;5.10;;
76228;SDS011;65021;53.174;18.160;2022-12-29T05:23:55;9.60;;;4.90;;
76228;SDS011;65021;53.174;18.160;2022-12-29T05:26:21;8.20;;;4.00;;
76228;SDS011;65021;53.174;18.160;2022-12-29T05:28:48;9.20;;;4.20;;
76228;SDS011;65021;53.174;18.160;2022-12-29T05:31:14;9.10;;;4.70;;
76228;SDS011;65021;53.174;18.160;2022-12-29T05:33:41;7.50;;;4.50;;
76228;SDS011;65021;53.174;18.160;2022-12-29T05:36:08;9.30;;;4.70;;
76228;SDS011;65021;53.174;18.160;2022-12-29T05:38:35;10.40;;;5.20;;
76228;SDS011;65021;53.174;18.160;2022-12-29T05:41:01;11.70;;;5.30;;
76228;SDS011;65021;53.174;18.160;2022-12-29T05:43:28;12.50;;;5.50;;
76228;SDS011;65021;53.174;18.160;2022-12-29T05:45:54;11.30;;;5.00;;
76228;SDS011;65021;53.174;18.160;2022-12-29T05:48:22;7.90;;;4.90;;
76228;SDS011;65021;53.174;18.160;2022-12-29T05:50:49;10.50;;;5.30;;
76228;SDS011;65021;53.174;18.160;2022-12-29T05:53:16;9.10;;;5.40;;
76228;SDS011;65021;53.174;18.160;2022-12-29T05:55:44;9.50;;;5.40;;
76228;SDS011;65021;53.174;18.160;2022-12-29T05:58:12;9.60;;;5.20;;
76228;SDS011;65021;53.174;18.160;2022-12-29T06:00:39;8.30;;;4.90;;
76228;SDS011;65021;53.174;18.160;2022-12-29T06:03:06;11.40;;;6.70;;
76228;SDS011;65021;53.174;18.160;2022-12-29T06:05:32;11.00;;;6.80;;
76228;SDS011;65021;53.174;18.160;2022-12-29T06:07:59;13.70;;;5.90;;
76228;SDS011;65021;53.174;18.160;2022-12-29T06:10:26;10.10;;;5.60;;
76228;SDS011;65021;53.174;18.160;2022-12-29T06:12:52;9.30;;;5.30;;
76228;SDS011;65021;53.174;18.160;2022-12-29T06:15:19;11.20;;;5.90;;
76228;SDS011;65021;53.174;18.160;2022-12-29T06:17:45;9.60;;;5.00;;
76228;SDS011;65021;53.174;18.160;2022-12-29T06:20:12;10.50;;;5.90;;
76228;SDS011;65021;53.174;18.160;2022-12-29T06:22:39;8.70;;;3.90;;
76228;SDS011;65021;53.174;18.160;2022-12-29T06:25:05;8.30;;;4.40;;
76228;SDS011;65021;53.174;18.160;2022-12-29T06:27:33;8.00;;;4.50;;
76228;SDS011;65021;53.174;18.160;2022-12-29T06:30:00;8.80;;;4.80;;
76228;SDS011;65021;53.174;18.160;2022-12-29T06:32:27;9.20;;;4.60;;
76228;SDS011;65021;53.174;18.160;2022-12-29T06:34:53;8.90;;;3.80;;
76228;SDS011;65021;53.174;18.160;2022-12-29T06:37:20;9.70;;;4.00;;
76228;SDS011;65021;53.174;18.160;2022-12-29T06:39:46;7.40;;;3.50;;
76228;SDS011;65021;53.174;18.160;2022-12-29T06:42:13;7.50;;;3.80;;
76228;SDS011;65021;53.174;18.160;2022-12-29T06:44:40;9.10;;;4.30;;
76228;SDS011;65021;53.174;18.160;2022-12-29T06:47:06;7.60;;;3.00;;
76228;SDS011;65021;53.174;18.160;2022-12-29T06:49:33;6.20;;;2.80;;
76228;SDS011;65021;53.174;18.160;2022-12-29T06:51:59;7.20;;;3.10;;
76228;SDS011;65021;53.174;18.160;2022-12-29T06:54:26;5.20;;;2.20;;
76228;SDS011;65021;53.174;18.160;2022-12-29T06:56:53;8.30;;;3.00;;
76228;SDS011;65021;53.174;18.160;2022-12-29T06:59:19;6.10;;;2.60;;
76228;SDS011;65021;53.174;18.160;2022-12-29T07:01:46;6.50;;;2.60;;
76228;SDS011;65021;53.174;18.160;2022-12-29T07:04:12;5.60;;;1.90;;
76228;SDS011;65021;53.174;18.160;2022-12-29T07:06:39;5.10;;;1.80;;
76228;SDS011;65021;53.174;18.160;2022-12-29T07:09:07;5.40;;;1.90;;
76228;SDS011;65021;53.174;18.160;2022-12-29T07:11:34;5.40;;;2.20;;
76228;SDS011;65021;53.174;18.160;2022-12-29T07:14:02;5.00;;;2.10;;
76228;SDS011;65021;53.174;18.160;2022-12-29T07:16:29;5.30;;;2.40;;
76228;SDS011;65021;53.174;18.160;2022-12-29T07:18:56;5.00;;;2.00;;
76228;SDS011;65021;53.174;18.160;2022-12-29T07:21:23;6.70;;;2.80;;
76228;SDS011;65021;53.174;18.160;2022-12-29T07:23:49;4.80;;;2.00;;
76228;SDS011;65021;53.174;18.160;2022-12-29T07:26:16;6.40;;;2.40;;
76228;SDS011;65021;53.174;18.160;2022-12-29T07:28:45;5.90;;;2.20;;
76228;SDS011;65021;53.174;18.160;2022-12-29T07:31:16;5.60;;;2.20;;
76228;SDS011;65021;53.174;18.160;2022-12-29T07:33:45;5.20;;;2.20;;
76228;SDS011;65021;53.174;18.160;2022-12-29T07:36:14;4.80;;;1.90;;
76228;SDS011;65021;53.174;18.160;2022-12-29T07:38:42;5.00;;;1.90;;
76228;SDS011;65021;53.174;18.160;2022-12-29T07:41:09;5.50;;;2.30;;
76228;SDS011;65021;53.174;18.160;2022-12-29T07:43:35;6.90;;;2.40;;
76228;SDS011;65021;53.174;18.160;2022-12-29T07:46:02;6.30;;;2.60;;
76228;SDS011;65021;53.174;18.160;2022-12-29T07:48:29;5.90;;;2.20;;
76228;SDS011;65021;53.174;18.160;2022-12-29T07:50:55;5.30;;;2.20;;
76228;SDS011;65021;53.174;18.160;2022-12-29T07:53:22;5.50;;;2.60;;
76228;SDS011;65021;53.174;18.160;2022-12-29T07:55:48;5.70;;;1.80;;
76228;SDS011;65021;53.174;18.160;2022-12-29T07:58:15;5.40;;;2.50;;
76228;SDS011;65021;53.174;18.160;2022-12-29T08:00:41;5.50;;;2.40;;
76228;SDS011;65021;53.174;18.160;2022-12-29T08:03:08;5.10;;;2.00;;
76228;SDS011;65021;53.174;18.160;2022-12-29T08:05:34;5.90;;;2.40;;
76228;SDS011;65021;53.174;18.160;2022-12-29T08:08:01;5.50;;;3.00;;
76228;SDS011;65021;53.174;18.160;2022-12-29T08:10:27;6.20;;;2.80;;
76228;SDS011;65021;53.174;18.160;2022-12-29T08:12:54;10.80;;;3.40;;
76228;SDS011;65021;53.174;18.160;2022-12-29T08:15:21;6.10;;;2.40;;
76228;SDS011;65021;53.174;18.160;2022-12-29T08:17:47;7.30;;;3.90;;
76228;SDS011;65021;53.174;18.160;2022-12-29T08:20:14;7.90;;;3.30;;
76228;SDS011;65021;53.174;18.160;2022-12-29T08:22:40;6.20;;;2.30;;
76228;SDS011;65021;53.174;18.160;2022-12-29T08:25:07;7.90;;;3.20;;
76228;SDS011;65021;53.174;18.160;2022-12-29T08:27:34;8.80;;;2.70;;
76228;SDS011;65021;53.174;18.160;2022-12-29T08:30:00;8.20;;;2.90;;
76228;SDS011;65021;53.174;18.160;2022-12-29T08:32:27;5.50;;;2.50;;
76228;SDS011;65021;53.174;18.160;2022-12-29T08:34:54;8.50;;;3.70;;
76228;SDS011;65021;53.174;18.160;2022-12-29T08:37:21;5.80;;;2.20;;
76228;SDS011;65021;53.174;18.160;2022-12-29T08:39:48;6.20;;;3.00;;
76228;SDS011;65021;53.174;18.160;2022-12-29T08:42:14;7.80;;;2.80;;
76228;SDS011;65021;53.174;18.160;2022-12-29T08:44:41;5.30;;;2.30;;
76228;SDS011;65021;53.174;18.160;2022-12-29T08:47:09;7.30;;;2.40;;
76228;SDS011;65021;53.174;18.160;2022-12-29T08:49:37;5.50;;;2.60;;
76228;SDS011;65021;53.174;18.160;2022-12-29T08:52:03;5.20;;;2.30;;
76228;SDS011;65021;53.174;18.160;2022-12-29T08:54:30;6.00;;;2.40;;
76228;SDS011;65021;53.174;18.160;2022-12-29T08:56:57;8.20;;;2.90;;
76228;SDS011;65021;53.174;18.160;2022-12-29T08:59:23;5.80;;;2.30;;
76228;SDS011;65021;53.174;18.160;2022-12-29T09:01:50;6.20;;;2.70;;
76228;SDS011;65021;53.174;18.160;2022-12-29T09:04:16;4.30;;;1.70;;
76228;SDS011;65021;53.174;18.160;2022-12-29T09:06:44;5.30;;;1.80;;
76228;SDS011;65021;53.174;18.160;2022-12-29T09:09:11;6.00;;;2.30;;
76228;SDS011;65021;53.174;18.160;2022-12-29T09:11:38;5.10;;;2.10;;
76228;SDS011;65021;53.174;18.160;2022-12-29T09:14:04;6.20;;;2.20;;
76228;SDS011;65021;53.174;18.160;2022-12-29T09:16:31;5.60;;;2.00;;
76228;SDS011;65021;53.174;18.160;2022-12-29T09:18:58;6.10;;;2.20;;
76228;SDS011;65021;53.174;18.160;2022-12-29T09:21:25;4.50;;;1.90;;
76228;SDS011;65021;53.174;18.160;2022-12-29T09:23:51;4.30;;;1.90;;
76228;SDS011;65021;53.174;18.160;2022-12-29T09:26:18;6.70;;;2.10;;
76228;SDS011;65021;53.174;18.160;2022-12-29T09:28:45;4.20;;;2.00;;
76228;SDS011;65021;53.174;18.160;2022-12-29T09:31:13;5.90;;;1.90;;
76228;SDS011;65021;53.174;18.160;2022-12-29T09:33:40;5.70;;;2.30;;
76228;SDS011;65021;53.174;18.160;2022-12-29T09:36:07;4.70;;;2.20;;
76228;SDS011;65021;53.174;18.160;2022-12-29T09:38:34;4.50;;;1.70;;
76228;SDS011;65021;53.174;18.160;2022-12-29T09:41:04;6.10;;;1.80;;
76228;SDS011;65021;53.174;18.160;2022-12-29T09:43:59;4.50;;;1.90;;
76228;SDS011;65021;53.174;18.160;2022-12-29T09:46:36;4.40;;;1.70;;
76228;SDS011;65021;53.174;18.160;2022-12-29T09:49:08;7.00;;;2.10;;
76228;SDS011;65021;53.174;18.160;2022-12-29T09:51:46;5.80;;;1.80;;
76228;SDS011;65021;53.174;18.160;2022-12-29T09:57:16;6.10;;;2.30;;
76228;SDS011;65021;53.174;18.160;2022-12-29T09:59:48;7.60;;;2.70;;
76228;SDS011;65021;53.174;18.160;2022-12-29T10:02:32;6.50;;;2.40;;
76228;SDS011;65021;53.174;18.160;2022-12-29T10:05:09;5.40;;;2.30;;
76228;SDS011;65021;53.174;18.160;2022-12-29T10:07:55;6.90;;;2.00;;
76228;SDS011;65021;53.174;18.160;2022-12-29T10:10:38;5.50;;;2.40;;
76228;SDS011;65021;53.174;18.160;2022-12-29T10:23:53;5.20;;;2.00;;
76228;SDS011;65021;53.174;18.160;2022-12-29T10:26:26;5.50;;;2.50;;
76228;SDS011;65021;53.174;18.160;2022-12-29T10:29:02;5.20;;;2.10;;
76228;SDS011;65021;53.174;18.160;2022-12-29T10:31:34;5.80;;;2.40;;
76228;SDS011;65021;53.174;18.160;2022-12-29T10:34:10;5.40;;;2.30;;
76228;SDS011;65021;53.174;18.160;2022-12-29T10:36:58;4.40;;;2.20;;
76228;SDS011;65021;53.174;18.160;2022-12-29T10:39:49;5.50;;;2.00;;
76228;SDS011;65021;53.174;18.160;2022-12-29T10:42:25;3.40;;;1.10;;
76228;SDS011;65021;53.174;18.160;2022-12-29T10:44:56;5.80;;;2.00;;
76228;SDS011;65021;53.174;18.160;2022-12-29T10:47:24;5.00;;;2.20;;
76228;SDS011;65021;53.174;18.160;2022-12-29T10:49:55;6.60;;;2.80;;
76228;SDS011;65021;53.174;18.160;2022-12-29T10:57:27;8.10;;;2.50;;
76228;SDS011;65021;53.174;18.160;2022-12-29T10:59:57;5.10;;;2.30;;
76228;SDS011;65021;53.174;18.160;2022-12-29T11:07:55;4.40;;;1.60;;
76228;SDS011;65021;53.174;18.160;2022-12-29T11:10:45;8.20;;;1.80;;
76228;SDS011;65021;53.174;18.160;2022-12-29T11:13:26;10.00;;;3.80;;
76228;SDS011;65021;53.174;18.160;2022-12-29T11:15:54;9.20;;;3.40;;
76228;SDS011;65021;53.174;18.160;2022-12-29T11:18:22;7.90;;;2.80;;
76228;SDS011;65021;53.174;18.160;2022-12-29T11:21:03;9.40;;;3.60;;
76228;SDS011;65021;53.174;18.160;2022-12-29T11:23:36;8.00;;;3.30;;
76228;SDS011;65021;53.174;18.160;2022-12-29T11:28:46;9.30;;;2.80;;
76228;SDS011;65021;53.174;18.160;2022-12-29T11:31:30;5.70;;;1.90;;
76228;SDS011;65021;53.174;18.160;2022-12-29T11:33:56;6.20;;;2.70;;
76228;SDS011;65021;53.174;18.160;2022-12-29T11:36:23;6.50;;;2.10;;
76228;SDS011;65021;53.174;18.160;2022-12-29T11:38:51;6.60;;;2.70;;
76228;SDS011;65021;53.174;18.160;2022-12-29T11:41:21;4.90;;;2.10;;
76228;SDS011;65021;53.174;18.160;2022-12-29T11:43:50;10.40;;;2.80;;
76228;SDS011;65021;53.174;18.160;2022-12-29T11:46:29;7.30;;;2.50;;
76228;SDS011;65021;53.174;18.160;2022-12-29T11:49:00;5.60;;;2.20;;
76228;SDS011;65021;53.174;18.160;2022-12-29T11:51:39;6.20;;;2.30;;
76228;SDS011;65021;53.174;18.160;2022-12-29T11:54:15;4.40;;;2.00;;
76228;SDS011;65021;53.174;18.160;2022-12-29T11:56:48;6.70;;;2.70;;
76228;SDS011;65021;53.174;18.160;2022-12-29T12:01:56;4.60;;;2.00;;
76228;SDS011;65021;53.174;18.160;2022-12-29T12:04:26;5.20;;;2.30;;
76228;SDS011;65021;53.174;18.160;2022-12-29T12:06:59;4.20;;;1.70;;
76228;SDS011;65021;53.174;18.160;2022-12-29T12:09:32;5.70;;;2.50;;
76228;SDS011;65021;53.174;18.160;2022-12-29T12:12:05;7.20;;;2.50;;
76228;SDS011;65021;53.174;18.160;2022-12-29T12:14:42;5.90;;;2.60;;
76228;SDS011;65021;53.174;18.160;2022-12-29T12:17:18;6.70;;;2.70;;
76228;SDS011;65021;53.174;18.160;2022-12-29T12:20:18;6.80;;;2.70;;
76228;SDS011;65021;53.174;18.160;2022-12-29T12:23:09;8.40;;;3.60;;
76228;SDS011;65021;53.174;18.160;2022-12-29T12:31:50;7.10;;;2.80;;
76228;SDS011;65021;53.174;18.160;2022-12-29T12:34:43;8.00;;;2.70;;
76228;SDS011;65021;53.174;18.160;2022-12-29T12:45:32;6.30;;;2.30;;
76228;SDS011;65021;53.174;18.160;2022-12-29T12:48:20;6.20;;;2.70;;
76228;SDS011;65021;53.174;18.160;2022-12-29T12:50:58;7.90;;;2.80;;
76228;SDS011;65021;53.174;18.160;2022-12-29T12:53:44;5.40;;;2.40;;
76228;SDS011;65021;53.174;18.160;2022-12-29T12:59:07;7.30;;;2.40;;
76228;SDS011;65021;53.174;18.160;2022-12-29T13:01:55;5.70;;;2.20;;
76228;SDS011;65021;53.174;18.160;2022-12-29T13:04:43;7.20;;;2.80;;
76228;SDS011;65021;53.174;18.160;2022-12-29T13:23:34;4.40;;;1.60;;
76228;SDS011;65021;53.174;18.160;2022-12-29T13:26:19;5.40;;;2.00;;
76228;SDS011;65021;53.174;18.160;2022-12-29T13:29:04;6.80;;;2.20;;
76228;SDS011;65021;53.174;18.160;2022-12-29T13:36:54;5.20;;;2.00;;
76228;SDS011;65021;53.174;18.160;2022-12-29T13:39:26;4.90;;;2.20;;
76228;SDS011;65021;53.174;18.160;2022-12-29T13:41:58;7.20;;;2.30;;
76228;SDS011;65021;53.174;18.160;2022-12-29T13:44:31;5.50;;;2.80;;
76228;SDS011;65021;53.174;18.160;2022-12-29T13:50:26;5.30;;;2.30;;
76228;SDS011;65021;53.174;18.160;2022-12-29T13:55:49;4.60;;;1.80;;
76228;SDS011;65021;53.174;18.160;2022-12-29T13:58:29;5.10;;;1.90;;
76228;SDS011;65021;53.174;18.160;2022-12-29T14:01:08;4.70;;;2.00;;
76228;SDS011;65021;53.174;18.160;2022-12-29T14:03:43;5.30;;;2.10;;
76228;SDS011;65021;53.174;18.160;2022-12-29T14:06:15;7.80;;;2.10;;
76228;SDS011;65021;53.174;18.160;2022-12-29T14:08:46;9.90;;;2.90;;
76228;SDS011;65021;53.174;18.160;2022-12-29T14:11:14;7.60;;;2.90;;
76228;SDS011;65021;53.174;18.160;2022-12-29T14:13:44;6.50;;;2.50;;
76228;SDS011;65021;53.174;18.160;2022-12-29T14:19:26;6.70;;;2.60;;
76228;SDS011;65021;53.174;18.160;2022-12-29T14:21:57;5.90;;;2.10;;
76228;SDS011;65021;53.174;18.160;2022-12-29T14:26:59;4.90;;;1.90;;
76228;SDS011;65021;53.174;18.160;2022-12-29T14:31:55;4.80;;;2.00;;
76228;SDS011;65021;53.174;18.160;2022-12-29T14:44:50;7.80;;;2.50;;
76228;SDS011;65021;53.174;18.160;2022-12-29T14:47:41;6.80;;;2.50;;
76228;SDS011;65021;53.174;18.160;2022-12-29T14:50:11;7.60;;;2.90;;
76228;SDS011;65021;53.174;18.160;2022-12-29T14:52:48;7.30;;;3.10;;
76228;SDS011;65021;53.174;18.160;2022-12-29T15:00:42;7.60;;;3.50;;
76228;SDS011;65021;53.174;18.160;2022-12-29T15:05:54;9.70;;;3.90;;
76228;SDS011;65021;53.174;18.160;2022-12-29T15:08:24;10.10;;;3.50;;
76228;SDS011;65021;53.174;18.160;2022-12-29T15:11:40;10.20;;;3.40;;
76228;SDS011;65021;53.174;18.160;2022-12-29T15:13:48;8.40;;;3.30;;
76228;SDS011;65021;53.174;18.160;2022-12-29T15:18:52;12.40;;;4.00;;
76228;SDS011;65021;53.174;18.160;2022-12-29T15:21:23;11.70;;;4.10;;
76228;SDS011;65021;53.174;18.160;2022-12-29T15:23:55;7.50;;;3.10;;
76228;SDS011;65021;53.174;18.160;2022-12-29T15:26:22;9.80;;;3.90;;
76228;SDS011;65021;53.174;18.160;2022-12-29T15:28:52;10.00;;;3.10;;
76228;SDS011;65021;53.174;18.160;2022-12-29T15:31:21;9.00;;;4.20;;
76228;SDS011;65021;53.174;18.160;2022-12-29T15:33:51;11.20;;;3.50;;
76228;SDS011;65021;53.174;18.160;2022-12-29T15:36:21;8.40;;;3.10;;
76228;SDS011;65021;53.174;18.160;2022-12-29T15:38:50;7.00;;;3.40;;
76228;SDS011;65021;53.174;18.160;2022-12-29T15:41:34;10.60;;;3.70;;
76228;SDS011;65021;53.174;18.160;2022-12-29T15:44:51;9.80;;;3.60;;
76228;SDS011;65021;53.174;18.160;2022-12-29T15:49:48;12.30;;;4.70;;
76228;SDS011;65021;53.174;18.160;2022-12-29T15:52:17;13.10;;;4.10;;
76228;SDS011;65021;53.174;18.160;2022-12-29T15:54:49;8.40;;;2.50;;
76228;SDS011;65021;53.174;18.160;2022-12-29T15:57:36;12.70;;;4.20;;
76228;SDS011;65021;53.174;18.160;2022-12-29T16:00:27;11.80;;;4.10;;
76228;SDS011;65021;53.174;18.160;2022-12-29T16:02:59;12.20;;;3.90;;
76228;SDS011;65021;53.174;18.160;2022-12-29T16:05:35;11.20;;;4.10;;
76228;SDS011;65021;53.174;18.160;2022-12-29T16:08:20;13.60;;;3.80;;
76228;SDS011;65021;53.174;18.160;2022-12-29T16:10:50;12.10;;;4.20;;
76228;SDS011;65021;53.174;18.160;2022-12-29T16:13:26;14.40;;;4.30;;
76228;SDS011;65021;53.174;18.160;2022-12-29T16:15:59;5.60;;;1.80;;
76228;SDS011;65021;53.174;18.160;2022-12-29T16:18:47;23.20;;;5.60;;
76228;SDS011;65021;53.174;18.160;2022-12-29T16:21:23;14.50;;;5.10;;
76228;SDS011;65021;53.174;18.160;2022-12-29T16:23:55;16.80;;;5.90;;
76228;SDS011;65021;53.174;18.160;2022-12-29T16:26:27;16.80;;;5.30;;
76228;SDS011;65021;53.174;18.160;2022-12-29T16:28:56;15.00;;;5.90;;
76228;SDS011;65021;53.174;18.160;2022-12-29T16:34:30;7.10;;;3.40;;
76228;SDS011;65021;53.174;18.160;2022-12-29T16:50:35;14.90;;;5.50;;
76228;SDS011;65021;53.174;18.160;2022-12-29T16:53:05;12.10;;;4.60;;
76228;SDS011;65021;53.174;18.160;2022-12-29T16:55:33;11.20;;;5.20;;
76228;SDS011;65021;53.174;18.160;2022-12-29T16:58:00;11.80;;;3.80;;
76228;SDS011;65021;53.174;18.160;2022-12-29T17:00:27;11.20;;;5.20;;
76228;SDS011;65021;53.174;18.160;2022-12-29T17:02:59;9.20;;;4.70;;
76228;SDS011;65021;53.174;18.160;2022-12-29T17:05:27;10.40;;;4.90;;
76228;SDS011;65021;53.174;18.160;2022-12-29T17:07:54;12.10;;;6.00;;
76228;SDS011;65021;53.174;18.160;2022-12-29T17:10:26;9.90;;;4.40;;
76228;SDS011;65021;53.174;18.160;2022-12-29T17:13:13;12.00;;;5.40;;
76228;SDS011;65021;53.174;18.160;2022-12-29T17:15:40;14.30;;;6.00;;
76228;SDS011;65021;53.174;18.160;2022-12-29T17:18:06;13.10;;;5.60;;
76228;SDS011;65021;53.174;18.160;2022-12-29T17:23:05;10.40;;;4.90;;
76228;SDS011;65021;53.174;18.160;2022-12-29T17:25:40;12.40;;;5.10;;
76228;SDS011;65021;53.174;18.160;2022-12-29T17:28:13;14.10;;;5.30;;
76228;SDS011;65021;53.174;18.160;2022-12-29T17:30:46;15.70;;;6.00;;
76228;SDS011;65021;53.174;18.160;2022-12-29T17:33:14;14.20;;;6.80;;
76228;SDS011;65021;53.174;18.160;2022-12-29T17:35:42;15.30;;;6.10;;
76228;SDS011;65021;53.174;18.160;2022-12-29T17:38:19;14.40;;;5.90;;
76228;SDS011;65021;53.174;18.160;2022-12-29T17:40:51;19.80;;;7.10;;